sensor_id;sensor_type;location;lat;lon;timestamp;temperature;humidity
25438;DHT22;13364;49.084;9.978;2023-04-29T00:00:14;11.70;100.00
25438;DHT22;13364;49.084;9.978;2023-04-29T00:02:42;11.70;100.00
25438;DHT22;13364;49.084;9.978;2023-04-29T00:05:09;11.70;100.00
25438;DHT22;13364;49.084;9.978;2023-04-29T00:07:36;11.80;100.00
25438;DHT22;13364;49.084;9.978;2023-04-29T00:10:04;11.80;100.00
25438;DHT22;13364;49.084;9.978;2023-04-29T00:12:31;11.80;100.00
25438;DHT22;13364;49.084;9.978;2023-04-29T00:14:59;11.90;100.00
25438;DHT22;13364;49.084;9.978;2023-04-29T00:17:28;12.00;100.00
25438;DHT22;13364;49.084;9.978;2023-04-29T00:19:55;12.10;100.00
25438;DHT22;13364;49.084;9.978;2023-04-29T00:22:22;12.10;100.00
25438;DHT22;13364;49.084;9.978;2023-04-29T00:24:49;12.10;100.00
25438;DHT22;13364;49.084;9.978;2023-04-29T00:27:16;12.20;100.00
25438;DHT22;13364;49.084;9.978;2023-04-29T00:29:44;12.20;100.00
25438;DHT22;13364;49.084;9.978;2023-04-29T00:32:11;12.20;100.00
25438;DHT22;13364;49.084;9.978;2023-04-29T00:34:38;12.20;100.00
25438;DHT22;13364;49.084;9.978;2023-04-29T00:37:05;12.30;100.00
25438;DHT22;13364;49.084;9.978;2023-04-29T00:39:32;12.20;100.00
25438;DHT22;13364;49.084;9.978;2023-04-29T00:41:59;12.20;100.00
25438;DHT22;13364;49.084;9.978;2023-04-29T00:44:26;12.20;100.00
25438;DHT22;13364;49.084;9.978;2023-04-29T00:46:53;12.20;100.00
25438;DHT22;13364;49.084;9.978;2023-04-29T00:49:20;12.30;100.00
25438;DHT22;13364;49.084;9.978;2023-04-29T00:51:48;12.30;100.00
25438;DHT22;13364;49.084;9.978;2023-04-29T00:54:16;12.30;100.00
25438;DHT22;13364;49.084;9.978;2023-04-29T00:56:44;12.30;100.00
25438;DHT22;13364;49.084;9.978;2023-04-29T00:59:12;12.30;100.00
25438;DHT22;13364;49.084;9.978;2023-04-29T01:01:41;12.20;100.00
25438;DHT22;13364;49.084;9.978;2023-04-29T01:04:08;12.20;100.00
25438;DHT22;13364;49.084;9.978;2023-04-29T01:12:10;12.10;100.00
25438;DHT22;13364;49.084;9.978;2023-04-29T01:14:42;12.10;100.00
25438;DHT22;13364;49.084;9.978;2023-04-29T01:17:17;12.10;100.00
25438;DHT22;13364;49.084;9.978;2023-04-29T01:19:52;12.10;100.00
25438;DHT22;13364;49.084;9.978;2023-04-29T01:22:21;12.00;100.00
25438;DHT22;13364;49.084;9.978;2023-04-29T01:24:49;12.10;100.00
25438;DHT22;13364;49.084;9.978;2023-04-29T01:27:36;12.10;100.00
25438;DHT22;13364;49.084;9.978;2023-04-29T01:36:11;12.20;100.00
25438;DHT22;13364;49.084;9.978;2023-04-29T01:42:28;12.30;100.00
25438;DHT22;13364;49.084;9.978;2023-04-29T01:45:05;12.40;100.00
25438;DHT22;13364;49.084;9.978;2023-04-29T01:47:35;12.50;100.00
25438;DHT22;13364;49.084;9.978;2023-04-29T01:50:02;12.50;100.00
25438;DHT22;13364;49.084;9.978;2023-04-29T01:52:30;12.60;100.00
25438;DHT22;13364;49.084;9.978;2023-04-29T01:54:57;12.60;100.00
25438;DHT22;13364;49.084;9.978;2023-04-29T01:57:31;12.60;100.00
25438;DHT22;13364;49.084;9.978;2023-04-29T02:00:08;12.70;100.00
25438;DHT22;13364;49.084;9.978;2023-04-29T02:02:43;12.70;100.00
25438;DHT22;13364;49.084;9.978;2023-04-29T02:05:21;12.70;100.00
25438;DHT22;13364;49.084;9.978;2023-04-29T02:07:55;12.70;100.00
25438;DHT22;13364;49.084;9.978;2023-04-29T02:10:22;12.80;100.00
25438;DHT22;13364;49.084;9.978;2023-04-29T02:12:56;12.80;100.00
25438;DHT22;13364;49.084;9.978;2023-04-29T02:15:26;12.80;100.00
25438;DHT22;13364;49.084;9.978;2023-04-29T02:17:54;12.70;100.00
25438;DHT22;13364;49.084;9.978;2023-04-29T02:20:21;12.60;100.00
25438;DHT22;13364;49.084;9.978;2023-04-29T02:22:48;12.70;100.00
25438;DHT22;13364;49.084;9.978;2023-04-29T02:25:15;12.70;100.00
25438;DHT22;13364;49.084;9.978;2023-04-29T02:27:49;12.80;100.00
25438;DHT22;13364;49.084;9.978;2023-04-29T02:30:17;12.80;100.00
25438;DHT22;13364;49.084;9.978;2023-04-29T02:32:44;12.80;100.00
25438;DHT22;13364;49.084;9.978;2023-04-29T02:35:13;12.90;100.00
25438;DHT22;13364;49.084;9.978;2023-04-29T02:37:40;12.90;100.00
25438;DHT22;13364;49.084;9.978;2023-04-29T02:40:08;12.90;100.00
25438;DHT22;13364;49.084;9.978;2023-04-29T02:42:35;12.90;100.00
25438;DHT22;13364;49.084;9.978;2023-04-29T02:45:02;12.80;100.00
25438;DHT22;13364;49.084;9.978;2023-04-29T02:47:29;12.80;100.00
25438;DHT22;13364;49.084;9.978;2023-04-29T02:49:57;12.80;100.00
25438;DHT22;13364;49.084;9.978;2023-04-29T02:52:24;12.70;100.00
25438;DHT22;13364;49.084;9.978;2023-04-29T02:54:51;12.70;100.00
25438;DHT22;13364;49.084;9.978;2023-04-29T02:57:18;12.70;100.00
25438;DHT22;13364;49.084;9.978;2023-04-29T02:59:45;12.70;100.00
25438;DHT22;13364;49.084;9.978;2023-04-29T03:02:12;12.70;100.00
25438;DHT22;13364;49.084;9.978;2023-04-29T03:04:40;12.80;100.00
25438;DHT22;13364;49.084;9.978;2023-04-29T03:07:08;12.80;100.00
25438;DHT22;13364;49.084;9.978;2023-04-29T03:09:35;12.80;100.00
25438;DHT22;13364;49.084;9.978;2023-04-29T03:12:03;12.90;100.00
25438;DHT22;13364;49.084;9.978;2023-04-29T03:14:30;12.90;100.00
25438;DHT22;13364;49.084;9.978;2023-04-29T03:16:57;12.90;100.00
25438;DHT22;13364;49.084;9.978;2023-04-29T03:19:24;12.90;100.00
25438;DHT22;13364;49.084;9.978;2023-04-29T03:21:52;13.00;100.00
25438;DHT22;13364;49.084;9.978;2023-04-29T03:24:20;13.00;100.00
25438;DHT22;13364;49.084;9.978;2023-04-29T03:26:47;12.90;100.00
25438;DHT22;13364;49.084;9.978;2023-04-29T03:29:14;12.90;100.00
25438;DHT22;13364;49.084;9.978;2023-04-29T03:31:42;12.90;100.00
25438;DHT22;13364;49.084;9.978;2023-04-29T03:34:09;12.80;100.00
25438;DHT22;13364;49.084;9.978;2023-04-29T03:36:39;12.70;100.00
25438;DHT22;13364;49.084;9.978;2023-04-29T03:39:07;12.70;100.00
25438;DHT22;13364;49.084;9.978;2023-04-29T03:41:34;12.60;100.00
25438;DHT22;13364;49.084;9.978;2023-04-29T03:44:02;12.70;100.00
25438;DHT22;13364;49.084;9.978;2023-04-29T03:46:29;12.70;100.00
25438;DHT22;13364;49.084;9.978;2023-04-29T03:48:56;12.70;100.00
25438;DHT22;13364;49.084;9.978;2023-04-29T03:51:24;12.70;100.00
25438;DHT22;13364;49.084;9.978;2023-04-29T03:53:58;12.70;100.00
25438;DHT22;13364;49.084;9.978;2023-04-29T03:56:26;12.70;100.00
25438;DHT22;13364;49.084;9.978;2023-04-29T03:58:53;12.60;100.00
25438;DHT22;13364;49.084;9.978;2023-04-29T04:01:23;12.60;100.00
25438;DHT22;13364;49.084;9.978;2023-04-29T04:03:51;12.60;100.00
25438;DHT22;13364;49.084;9.978;2023-04-29T04:06:19;12.60;100.00
25438;DHT22;13364;49.084;9.978;2023-04-29T04:08:47;12.60;100.00
25438;DHT22;13364;49.084;9.978;2023-04-29T04:11:18;12.60;100.00
25438;DHT22;13364;49.084;9.978;2023-04-29T04:13:58;12.60;100.00
25438;DHT22;13364;49.084;9.978;2023-04-29T04:16:25;12.60;100.00
25438;DHT22;13364;49.084;9.978;2023-04-29T04:18:53;12.60;100.00
25438;DHT22;13364;49.084;9.978;2023-04-29T04:21:20;12.60;100.00
25438;DHT22;13364;49.084;9.978;2023-04-29T04:23:59;12.50;100.00
25438;DHT22;13364;49.084;9.978;2023-04-29T04:26:28;12.50;100.00
25438;DHT22;13364;49.084;9.978;2023-04-29T04:29:02;12.50;100.00
25438;DHT22;13364;49.084;9.978;2023-04-29T04:31:46;12.40;100.00
25438;DHT22;13364;49.084;9.978;2023-04-29T04:34:14;12.40;100.00
25438;DHT22;13364;49.084;9.978;2023-04-29T04:36:43;12.40;100.00
25438;DHT22;13364;49.084;9.978;2023-04-29T04:39:10;12.40;100.00
25438;DHT22;13364;49.084;9.978;2023-04-29T04:41:37;12.50;100.00
25438;DHT22;13364;49.084;9.978;2023-04-29T04:44:04;12.40;100.00
25438;DHT22;13364;49.084;9.978;2023-04-29T04:46:45;12.40;100.00
25438;DHT22;13364;49.084;9.978;2023-04-29T04:49:16;12.40;100.00
25438;DHT22;13364;49.084;9.978;2023-04-29T04:51:48;12.40;100.00
25438;DHT22;13364;49.084;9.978;2023-04-29T04:54:16;12.50;100.00
25438;DHT22;13364;49.084;9.978;2023-04-29T04:56:43;12.50;100.00
25438;DHT22;13364;49.084;9.978;2023-04-29T04:59:10;12.50;100.00
25438;DHT22;13364;49.084;9.978;2023-04-29T05:01:39;12.50;100.00
25438;DHT22;13364;49.084;9.978;2023-04-29T05:04:06;12.50;100.00
25438;DHT22;13364;49.084;9.978;2023-04-29T05:06:33;12.50;100.00
25438;DHT22;13364;49.084;9.978;2023-04-29T05:09:00;12.50;100.00
25438;DHT22;13364;49.084;9.978;2023-04-29T05:11:27;12.60;100.00
25438;DHT22;13364;49.084;9.978;2023-04-29T05:14:08;12.60;100.00
25438;DHT22;13364;49.084;9.978;2023-04-29T05:16:35;12.70;100.00
25438;DHT22;13364;49.084;9.978;2023-04-29T05:19:02;12.60;100.00
25438;DHT22;13364;49.084;9.978;2023-04-29T05:21:33;12.60;100.00
25438;DHT22;13364;49.084;9.978;2023-04-29T05:24:01;12.60;100.00
25438;DHT22;13364;49.084;9.978;2023-04-29T05:26:28;12.60;100.00
25438;DHT22;13364;49.084;9.978;2023-04-29T05:28:58;12.70;100.00
25438;DHT22;13364;49.084;9.978;2023-04-29T05:31:29;12.60;100.00
25438;DHT22;13364;49.084;9.978;2023-04-29T05:34:00;12.60;100.00
25438;DHT22;13364;49.084;9.978;2023-04-29T05:36:27;12.70;100.00
25438;DHT22;13364;49.084;9.978;2023-04-29T05:38:56;12.70;100.00
25438;DHT22;13364;49.084;9.978;2023-04-29T05:41:23;12.70;100.00
25438;DHT22;13364;49.084;9.978;2023-04-29T05:44:11;12.70;100.00
25438;DHT22;13364;49.084;9.978;2023-04-29T05:46:38;12.70;100.00
25438;DHT22;13364;49.084;9.978;2023-04-29T05:49:05;12.80;100.00
25438;DHT22;13364;49.084;9.978;2023-04-29T05:54:41;12.90;100.00
25438;DHT22;13364;49.084;9.978;2023-04-29T05:57:08;12.90;100.00
25438;DHT22;13364;49.084;9.978;2023-04-29T05:59:35;13.00;100.00
25438;DHT22;13364;49.084;9.978;2023-04-29T06:02:04;12.90;100.00
25438;DHT22;13364;49.084;9.978;2023-04-29T06:04:33;13.00;100.00
25438;DHT22;13364;49.084;9.978;2023-04-29T06:07:13;13.00;100.00
25438;DHT22;13364;49.084;9.978;2023-04-29T06:10:21;13.10;100.00
25438;DHT22;13364;49.084;9.978;2023-04-29T06:12:48;13.10;100.00
25438;DHT22;13364;49.084;9.978;2023-04-29T06:15:17;13.10;100.00
25438;DHT22;13364;49.084;9.978;2023-04-29T06:17:44;13.10;100.00
25438;DHT22;13364;49.084;9.978;2023-04-29T06:20:12;13.10;100.00
25438;DHT22;13364;49.084;9.978;2023-04-29T06:22:39;13.00;100.00
25438;DHT22;13364;49.084;9.978;2023-04-29T06:25:06;13.10;100.00
25438;DHT22;13364;49.084;9.978;2023-04-29T06:28:05;13.10;100.00
25438;DHT22;13364;49.084;9.978;2023-04-29T06:30:35;13.10;100.00
25438;DHT22;13364;49.084;9.978;2023-04-29T06:33:02;13.10;100.00
25438;DHT22;13364;49.084;9.978;2023-04-29T06:35:30;13.20;100.00
25438;DHT22;13364;49.084;9.978;2023-04-29T06:38:00;13.20;100.00
25438;DHT22;13364;49.084;9.978;2023-04-29T06:40:37;13.20;100.00
25438;DHT22;13364;49.084;9.978;2023-04-29T06:43:26;13.10;100.00
25438;DHT22;13364;49.084;9.978;2023-04-29T06:46:21;12.90;100.00
25438;DHT22;13364;49.084;9.978;2023-04-29T06:49:01;12.90;100.00
25438;DHT22;13364;49.084;9.978;2023-04-29T06:51:30;12.80;100.00
25438;DHT22;13364;49.084;9.978;2023-04-29T06:53:58;12.90;100.00
25438;DHT22;13364;49.084;9.978;2023-04-29T06:56:25;12.90;100.00
25438;DHT22;13364;49.084;9.978;2023-04-29T06:58:53;12.90;100.00
25438;DHT22;13364;49.084;9.978;2023-04-29T07:01:20;12.90;100.00
25438;DHT22;13364;49.084;9.978;2023-04-29T07:03:49;12.90;100.00
25438;DHT22;13364;49.084;9.978;2023-04-29T07:06:18;12.90;100.00
25438;DHT22;13364;49.084;9.978;2023-04-29T07:08:45;12.90;100.00
25438;DHT22;13364;49.084;9.978;2023-04-29T07:11:14;12.90;100.00
25438;DHT22;13364;49.084;9.978;2023-04-29T07:13:41;12.90;100.00
25438;DHT22;13364;49.084;9.978;2023-04-29T07:16:15;12.90;100.00
25438;DHT22;13364;49.084;9.978;2023-04-29T07:18:44;13.00;100.00
25438;DHT22;13364;49.084;9.978;2023-04-29T07:21:11;13.00;100.00
25438;DHT22;13364;49.084;9.978;2023-04-29T07:23:39;13.00;100.00
25438;DHT22;13364;49.084;9.978;2023-04-29T07:26:13;12.90;100.00
25438;DHT22;13364;49.084;9.978;2023-04-29T07:28:44;13.00;100.00
25438;DHT22;13364;49.084;9.978;2023-04-29T07:31:11;13.00;100.00
25438;DHT22;13364;49.084;9.978;2023-04-29T07:33:38;12.90;100.00
25438;DHT22;13364;49.084;9.978;2023-04-29T07:36:06;12.80;100.00
25438;DHT22;13364;49.084;9.978;2023-04-29T07:38:34;12.70;100.00
25438;DHT22;13364;49.084;9.978;2023-04-29T07:41:03;12.60;100.00
25438;DHT22;13364;49.084;9.978;2023-04-29T07:43:30;12.60;100.00
25438;DHT22;13364;49.084;9.978;2023-04-29T07:45:58;12.60;100.00
25438;DHT22;13364;49.084;9.978;2023-04-29T07:48:25;12.60;100.00
25438;DHT22;13364;49.084;9.978;2023-04-29T07:50:52;12.60;100.00
25438;DHT22;13364;49.084;9.978;2023-04-29T07:53:20;12.50;100.00
25438;DHT22;13364;49.084;9.978;2023-04-29T07:55:49;12.50;100.00
25438;DHT22;13364;49.084;9.978;2023-04-29T07:58:18;12.50;100.00
25438;DHT22;13364;49.084;9.978;2023-04-29T08:00:46;12.50;100.00
25438;DHT22;13364;49.084;9.978;2023-04-29T08:03:13;12.50;100.00
25438;DHT22;13364;49.084;9.978;2023-04-29T08:05:41;12.40;100.00
25438;DHT22;13364;49.084;9.978;2023-04-29T08:08:14;12.40;100.00
25438;DHT22;13364;49.084;9.978;2023-04-29T08:10:42;12.50;100.00
25438;DHT22;13364;49.084;9.978;2023-04-29T08:13:09;12.50;100.00
25438;DHT22;13364;49.084;9.978;2023-04-29T08:15:38;12.60;100.00
25438;DHT22;13364;49.084;9.978;2023-04-29T08:18:05;12.70;100.00
25438;DHT22;13364;49.084;9.978;2023-04-29T08:20:32;12.80;100.00
25438;DHT22;13364;49.084;9.978;2023-04-29T08:22:59;12.80;100.00
25438;DHT22;13364;49.084;9.978;2023-04-29T08:25:26;12.80;100.00
25438;DHT22;13364;49.084;9.978;2023-04-29T08:27:55;12.70;100.00
25438;DHT22;13364;49.084;9.978;2023-04-29T08:30:22;12.70;99.80
25438;DHT22;13364;49.084;9.978;2023-04-29T08:32:49;12.70;99.50
25438;DHT22;13364;49.084;9.978;2023-04-29T08:35:16;12.70;99.60
25438;DHT22;13364;49.084;9.978;2023-04-29T08:37:43;12.80;99.10
25438;DHT22;13364;49.084;9.978;2023-04-29T08:40:12;12.70;99.50
25438;DHT22;13364;49.084;9.978;2023-04-29T08:42:39;12.80;99.50
25438;DHT22;13364;49.084;9.978;2023-04-29T08:45:07;12.80;98.50
25438;DHT22;13364;49.084;9.978;2023-04-29T08:47:34;12.80;98.60
25438;DHT22;13364;49.084;9.978;2023-04-29T08:50:03;12.70;99.20
25438;DHT22;13364;49.084;9.978;2023-04-29T08:52:32;12.80;99.40
25438;DHT22;13364;49.084;9.978;2023-04-29T08:54:59;12.90;99.40
25438;DHT22;13364;49.084;9.978;2023-04-29T08:57:29;13.00;100.00
25438;DHT22;13364;49.084;9.978;2023-04-29T09:00:07;13.10;97.90
25438;DHT22;13364;49.084;9.978;2023-04-29T09:02:56;13.10;99.40
25438;DHT22;13364;49.084;9.978;2023-04-29T09:05:23;13.20;98.50
25438;DHT22;13364;49.084;9.978;2023-04-29T09:07:52;13.30;98.00
25438;DHT22;13364;49.084;9.978;2023-04-29T09:10:21;13.40;97.10
25438;DHT22;13364;49.084;9.978;2023-04-29T09:12:49;13.40;96.40
25438;DHT22;13364;49.084;9.978;2023-04-29T09:15:17;13.40;96.80
25438;DHT22;13364;49.084;9.978;2023-04-29T09:17:46;13.60;97.10
25438;DHT22;13364;49.084;9.978;2023-04-29T09:25:23;13.60;95.80
25438;DHT22;13364;49.084;9.978;2023-04-29T09:27:50;13.70;95.40
25438;DHT22;13364;49.084;9.978;2023-04-29T09:30:17;13.70;95.30
25438;DHT22;13364;49.084;9.978;2023-04-29T09:32:45;13.70;94.20
25438;DHT22;13364;49.084;9.978;2023-04-29T09:35:33;13.70;94.10
25438;DHT22;13364;49.084;9.978;2023-04-29T09:38:11;13.80;94.20
25438;DHT22;13364;49.084;9.978;2023-04-29T09:40:40;13.80;94.80
25438;DHT22;13364;49.084;9.978;2023-04-29T09:43:23;14.00;95.30
25438;DHT22;13364;49.084;9.978;2023-04-29T09:45:50;14.10;94.50
25438;DHT22;13364;49.084;9.978;2023-04-29T09:48:17;14.10;93.80
25438;DHT22;13364;49.084;9.978;2023-04-29T09:50:59;14.10;94.20
25438;DHT22;13364;49.084;9.978;2023-04-29T09:53:29;13.90;92.40
25438;DHT22;13364;49.084;9.978;2023-04-29T09:56:02;13.80;92.50
25438;DHT22;13364;49.084;9.978;2023-04-29T09:58:31;13.70;93.50
25438;DHT22;13364;49.084;9.978;2023-04-29T10:01:04;13.80;93.70
25438;DHT22;13364;49.084;9.978;2023-04-29T10:03:33;13.90;93.10
25438;DHT22;13364;49.084;9.978;2023-04-29T10:06:03;14.00;92.20
25438;DHT22;13364;49.084;9.978;2023-04-29T10:11:37;14.00;91.50
25438;DHT22;13364;49.084;9.978;2023-04-29T10:14:10;14.00;91.40
25438;DHT22;13364;49.084;9.978;2023-04-29T10:19:17;14.00;91.70
25438;DHT22;13364;49.084;9.978;2023-04-29T10:21:46;14.00;92.60
25438;DHT22;13364;49.084;9.978;2023-04-29T10:24:17;14.00;92.90
25438;DHT22;13364;49.084;9.978;2023-04-29T10:26:50;14.00;92.20
25438;DHT22;13364;49.084;9.978;2023-04-29T10:29:18;13.90;92.10
25438;DHT22;13364;49.084;9.978;2023-04-29T10:31:48;13.90;92.70
25438;DHT22;13364;49.084;9.978;2023-04-29T10:34:17;14.00;92.50
25438;DHT22;13364;49.084;9.978;2023-04-29T10:36:45;14.10;92.10
25438;DHT22;13364;49.084;9.978;2023-04-29T10:39:20;14.10;92.60
25438;DHT22;13364;49.084;9.978;2023-04-29T10:41:50;14.20;92.10
25438;DHT22;13364;49.084;9.978;2023-04-29T10:44:17;14.20;91.90
25438;DHT22;13364;49.084;9.978;2023-04-29T10:46:44;14.10;92.80
25438;DHT22;13364;49.084;9.978;2023-04-29T10:49:11;14.20;93.00
25438;DHT22;13364;49.084;9.978;2023-04-29T10:51:43;14.30;92.30
25438;DHT22;13364;49.084;9.978;2023-04-29T10:54:15;14.30;91.20
25438;DHT22;13364;49.084;9.978;2023-04-29T10:56:52;14.20;90.40
25438;DHT22;13364;49.084;9.978;2023-04-29T11:02:11;14.00;90.80
25438;DHT22;13364;49.084;9.978;2023-04-29T11:05:06;13.90;92.70
25438;DHT22;13364;49.084;9.978;2023-04-29T11:07:34;13.90;90.60
25438;DHT22;13364;49.084;9.978;2023-04-29T11:13:27;13.80;90.50
25438;DHT22;13364;49.084;9.978;2023-04-29T11:16:08;13.80;91.20
25438;DHT22;13364;49.084;9.978;2023-04-29T11:19:03;13.80;90.00
25438;DHT22;13364;49.084;9.978;2023-04-29T11:21:23;13.90;91.40
25438;DHT22;13364;49.084;9.978;2023-04-29T11:23:51;13.90;90.40
25438;DHT22;13364;49.084;9.978;2023-04-29T11:26:18;14.10;90.90
25438;DHT22;13364;49.084;9.978;2023-04-29T11:28:46;14.10;89.30
25438;DHT22;13364;49.084;9.978;2023-04-29T11:31:14;14.10;89.70
25438;DHT22;13364;49.084;9.978;2023-04-29T11:33:41;14.10;89.20
25438;DHT22;13364;49.084;9.978;2023-04-29T11:36:10;14.10;88.90
25438;DHT22;13364;49.084;9.978;2023-04-29T11:38:39;14.10;88.70
25438;DHT22;13364;49.084;9.978;2023-04-29T11:41:10;14.10;89.50
25438;DHT22;13364;49.084;9.978;2023-04-29T11:43:37;14.10;88.50
25438;DHT22;13364;49.084;9.978;2023-04-29T11:46:11;14.00;88.90
25438;DHT22;13364;49.084;9.978;2023-04-29T11:48:45;13.90;88.60
25438;DHT22;13364;49.084;9.978;2023-04-29T11:51:14;13.80;89.60
25438;DHT22;13364;49.084;9.978;2023-04-29T11:53:42;13.60;90.00
25438;DHT22;13364;49.084;9.978;2023-04-29T11:56:09;13.40;90.70
25438;DHT22;13364;49.084;9.978;2023-04-29T11:58:37;13.50;91.00
25438;DHT22;13364;49.084;9.978;2023-04-29T12:01:04;13.50;89.30
25438;DHT22;13364;49.084;9.978;2023-04-29T12:03:32;13.50;90.40
25438;DHT22;13364;49.084;9.978;2023-04-29T12:06:01;13.50;89.50
25438;DHT22;13364;49.084;9.978;2023-04-29T12:08:29;13.40;89.90
25438;DHT22;13364;49.084;9.978;2023-04-29T12:10:57;13.30;90.30
25438;DHT22;13364;49.084;9.978;2023-04-29T12:13:27;13.30;90.50
25438;DHT22;13364;49.084;9.978;2023-04-29T12:16:01;13.40;90.50
25438;DHT22;13364;49.084;9.978;2023-04-29T12:18:34;13.40;91.60
25438;DHT22;13364;49.084;9.978;2023-04-29T12:21:01;13.50;90.80
25438;DHT22;13364;49.084;9.978;2023-04-29T12:23:28;13.60;90.70
25438;DHT22;13364;49.084;9.978;2023-04-29T12:25:58;13.80;90.30
25438;DHT22;13364;49.084;9.978;2023-04-29T12:28:26;14.00;90.30
25438;DHT22;13364;49.084;9.978;2023-04-29T12:30:54;14.00;88.10
25438;DHT22;13364;49.084;9.978;2023-04-29T12:33:27;13.90;87.40
25438;DHT22;13364;49.084;9.978;2023-04-29T12:36:00;13.80;88.90
25438;DHT22;13364;49.084;9.978;2023-04-29T12:38:31;14.00;89.50
25438;DHT22;13364;49.084;9.978;2023-04-29T12:40:59;14.10;88.80
25438;DHT22;13364;49.084;9.978;2023-04-29T12:43:32;14.20;88.30
25438;DHT22;13364;49.084;9.978;2023-04-29T12:46:06;14.20;87.50
25438;DHT22;13364;49.084;9.978;2023-04-29T12:48:36;14.30;87.80
25438;DHT22;13364;49.084;9.978;2023-04-29T12:51:12;14.30;86.10
25438;DHT22;13364;49.084;9.978;2023-04-29T12:53:39;14.40;85.90
25438;DHT22;13364;49.084;9.978;2023-04-29T12:56:06;14.50;85.90
25438;DHT22;13364;49.084;9.978;2023-04-29T12:58:34;14.50;83.90
25438;DHT22;13364;49.084;9.978;2023-04-29T13:04:32;14.40;84.40
25438;DHT22;13364;49.084;9.978;2023-04-29T13:06:59;14.40;85.50
25438;DHT22;13364;49.084;9.978;2023-04-29T13:09:26;14.50;85.10
25438;DHT22;13364;49.084;9.978;2023-04-29T13:11:54;14.50;84.20
25438;DHT22;13364;49.084;9.978;2023-04-29T13:14:21;14.50;85.50
25438;DHT22;13364;49.084;9.978;2023-04-29T13:16:48;14.50;83.90
25438;DHT22;13364;49.084;9.978;2023-04-29T13:19:15;14.40;83.50
25438;DHT22;13364;49.084;9.978;2023-04-29T13:21:56;14.30;83.90
25438;DHT22;13364;49.084;9.978;2023-04-29T13:24:23;14.10;84.40
25438;DHT22;13364;49.084;9.978;2023-04-29T13:27:12;14.00;86.40
25438;DHT22;13364;49.084;9.978;2023-04-29T13:32:59;14.30;86.90
25438;DHT22;13364;49.084;9.978;2023-04-29T13:35:37;14.50;86.60
25438;DHT22;13364;49.084;9.978;2023-04-29T13:38:06;14.40;85.50
25438;DHT22;13364;49.084;9.978;2023-04-29T13:40:34;14.40;85.40
25438;DHT22;13364;49.084;9.978;2023-04-29T13:43:10;14.10;85.10
25438;DHT22;13364;49.084;9.978;2023-04-29T13:45:47;14.10;85.20
25438;DHT22;13364;49.084;9.978;2023-04-29T13:48:15;14.10;85.50
25438;DHT22;13364;49.084;9.978;2023-04-29T13:51:02;14.10;85.10
25438;DHT22;13364;49.084;9.978;2023-04-29T13:53:32;14.10;85.90
25438;DHT22;13364;49.084;9.978;2023-04-29T13:56:20;14.10;85.40
25438;DHT22;13364;49.084;9.978;2023-04-29T13:58:50;14.00;85.40
25438;DHT22;13364;49.084;9.978;2023-04-29T14:01:38;13.90;85.80
25438;DHT22;13364;49.084;9.978;2023-04-29T14:04:25;13.80;86.40
25438;DHT22;13364;49.084;9.978;2023-04-29T14:06:53;14.00;86.60
25438;DHT22;13364;49.084;9.978;2023-04-29T14:09:22;14.00;87.20
25438;DHT22;13364;49.084;9.978;2023-04-29T14:11:51;13.90;87.20
25438;DHT22;13364;49.084;9.978;2023-04-29T14:14:20;13.90;87.60
25438;DHT22;13364;49.084;9.978;2023-04-29T14:16:47;13.90;87.00
25438;DHT22;13364;49.084;9.978;2023-04-29T14:19:15;13.90;86.50
25438;DHT22;13364;49.084;9.978;2023-04-29T14:21:42;13.90;87.10
25438;DHT22;13364;49.084;9.978;2023-04-29T14:24:10;14.00;86.30
25438;DHT22;13364;49.084;9.978;2023-04-29T14:26:37;13.90;86.30
25438;DHT22;13364;49.084;9.978;2023-04-29T14:29:05;13.90;86.60
25438;DHT22;13364;49.084;9.978;2023-04-29T14:31:34;13.80;86.50
25438;DHT22;13364;49.084;9.978;2023-04-29T14:34:04;13.70;86.20
25438;DHT22;13364;49.084;9.978;2023-04-29T14:36:31;13.50;86.40
25438;DHT22;13364;49.084;9.978;2023-04-29T14:42:24;13.30;86.60
25438;DHT22;13364;49.084;9.978;2023-04-29T14:45:26;13.20;86.50
25438;DHT22;13364;49.084;9.978;2023-04-29T14:47:54;13.20;86.20
25438;DHT22;13364;49.084;9.978;2023-04-29T14:50:26;13.10;86.50
25438;DHT22;13364;49.084;9.978;2023-04-29T14:52:56;13.10;86.40
25438;DHT22;13364;49.084;9.978;2023-04-29T14:55:29;13.20;86.80
25438;DHT22;13364;49.084;9.978;2023-04-29T14:57:57;13.20;87.00
25438;DHT22;13364;49.084;9.978;2023-04-29T15:00:24;13.20;85.90
25438;DHT22;13364;49.084;9.978;2023-04-29T15:02:52;13.20;86.20
25438;DHT22;13364;49.084;9.978;2023-04-29T15:05:21;13.20;85.70
25438;DHT22;13364;49.084;9.978;2023-04-29T15:07:48;13.20;86.90
25438;DHT22;13364;49.084;9.978;2023-04-29T15:10:17;13.20;85.20
25438;DHT22;13364;49.084;9.978;2023-04-29T15:12:44;13.00;85.90
25438;DHT22;13364;49.084;9.978;2023-04-29T15:15:14;13.00;86.50
25438;DHT22;13364;49.084;9.978;2023-04-29T15:17:42;12.90;87.00
25438;DHT22;13364;49.084;9.978;2023-04-29T15:20:10;13.00;86.90
25438;DHT22;13364;49.084;9.978;2023-04-29T15:22:38;13.10;86.60
25438;DHT22;13364;49.084;9.978;2023-04-29T15:25:06;13.20;86.20
25438;DHT22;13364;49.084;9.978;2023-04-29T15:27:34;13.20;84.90
25438;DHT22;13364;49.084;9.978;2023-04-29T15:30:03;13.10;85.20
25438;DHT22;13364;49.084;9.978;2023-04-29T15:32:30;13.10;84.60
25438;DHT22;13364;49.084;9.978;2023-04-29T15:34:58;13.10;85.30
25438;DHT22;13364;49.084;9.978;2023-04-29T15:37:27;13.10;85.00
25438;DHT22;13364;49.084;9.978;2023-04-29T15:39:57;13.00;83.80
25438;DHT22;13364;49.084;9.978;2023-04-29T15:42:25;13.00;84.60
25438;DHT22;13364;49.084;9.978;2023-04-29T15:44:52;13.00;83.50
25438;DHT22;13364;49.084;9.978;2023-04-29T15:47:19;13.00;84.20
25438;DHT22;13364;49.084;9.978;2023-04-29T15:49:47;13.10;83.10
25438;DHT22;13364;49.084;9.978;2023-04-29T15:52:17;13.10;84.10
25438;DHT22;13364;49.084;9.978;2023-04-29T15:54:44;13.20;84.30
25438;DHT22;13364;49.084;9.978;2023-04-29T15:57:12;13.10;82.80
25438;DHT22;13364;49.084;9.978;2023-04-29T15:59:39;13.10;83.90
25438;DHT22;13364;49.084;9.978;2023-04-29T16:02:06;13.20;83.80
25438;DHT22;13364;49.084;9.978;2023-04-29T16:04:39;13.20;83.20
25438;DHT22;13364;49.084;9.978;2023-04-29T16:07:06;13.20;83.70
25438;DHT22;13364;49.084;9.978;2023-04-29T16:09:34;13.20;84.40
25438;DHT22;13364;49.084;9.978;2023-04-29T16:12:17;13.20;84.30
25438;DHT22;13364;49.084;9.978;2023-04-29T16:14:44;13.20;84.80
25438;DHT22;13364;49.084;9.978;2023-04-29T16:17:11;13.20;84.00
25438;DHT22;13364;49.084;9.978;2023-04-29T16:19:38;13.10;83.90
25438;DHT22;13364;49.084;9.978;2023-04-29T16:22:06;13.10;84.00
25438;DHT22;13364;49.084;9.978;2023-04-29T16:24:33;13.10;83.60